Time;durP1;ratioP1;P1;durP2;ratioP2;P2;SDS_P1;SDS_P2;PMS_P1;PMS_P2;Temp;Humidity;BMP_temperature;BMP_pressure;BME280_temperature;BME280_humidity;BME280_pressure;Samples;Min_cycle;Max_cycle;Signal;HPM_P1;HPM_P2
2022/08/22 00:02:08;;;;;;;11.20;6.13;;;;;;;-141.48;100.00;69781.59;5225162;28;20196;-65
2022/08/22 00:04:47;;;;;;;4.43;3.50;;;;;;;-141.48;100.00;69781.59;5224526;28;20025;-65
2022/08/22 00:07:55;;;;;;;6.37;5.83;;;;;;;-141.48;100.00;69781.59;5224946;28;20035;-65
2022/08/22 00:11:14;;;;;;;8.80;7.95;;;;;;;-141.48;100.00;69781.59;5224853;28;20029;-65
2022/08/22 00:13:54;;;;;;;4.53;4.25;;;;;;;-141.48;100.00;69781.59;5160543;28;20033;-65
2022/08/22 00:16:50;;;;;;;6.30;4.93;;;;;;;-141.48;100.00;69781.59;5161067;28;20122;-65
2022/08/22 00:19:26;;;;;;;4.65;4.30;;;;;;;-141.48;100.00;69781.59;5214634;28;20041;-66
2022/08/22 00:22:38;;;;;;;11.75;6.07;;;;;;;-141.48;100.00;69781.59;5223586;28;20643;-65
2022/08/22 00:25:42;;;;;;;7.07;6.43;;;;;;;-141.48;100.00;69781.59;5174726;28;20040;-65
2022/08/22 00:28:35;;;;;;;9.80;6.28;;;;;;;-141.48;100.00;69781.59;5224649;28;20028;-66
2022/08/22 00:31:27;;;;;;;6.97;6.53;;;;;;;-141.48;100.00;69781.59;5224456;28;20508;-65
2022/08/22 00:34:21;;;;;;;5.85;5.50;;;;;;;-141.48;100.00;69781.59;5206431;28;20059;-65
2022/08/22 00:37:21;;;;;;;6.40;5.30;;;;;;;-141.48;100.00;69781.59;5224285;28;20096;-65
2022/08/22 00:40:07;;;;;;;7.88;7.13;;;;;;;-141.48;100.00;69781.59;5223465;28;20786;-66
2022/08/22 00:43:08;;;;;;;9.18;7.65;;;;;;;-141.48;100.00;69781.59;5223525;28;20472;-66
2022/08/22 00:46:13;;;;;;;6.55;5.78;;;;;;;-141.48;100.00;69781.59;5223772;28;20111;-66
2022/08/22 00:48:52;;;;;;;6.85;6.15;;;;;;;-141.48;100.00;69781.59;5224350;28;20052;-66
2022/08/22 00:51:49;;;;;;;7.63;6.88;;;;;;;-141.48;100.00;69781.59;5224318;28;20025;-66
2022/08/22 00:54:27;;;;;;;6.63;5.15;;;;;;;-141.48;100.00;69781.59;5223621;28;20033;-66
2022/08/22 00:57:27;;;;;;;13.05;7.80;;;;;;;-141.48;100.00;69781.59;5224597;28;20037;-66
2022/08/22 01:00:17;;;;;;;8.13;5.55;;;;;;;-141.48;100.00;69781.59;5224079;28;20052;-67
2022/08/22 01:03:11;;;;;;;7.40;6.35;;;;;;;-141.48;100.00;69781.59;5224204;28;20025;-66
2022/08/22 01:05:47;;;;;;;11.85;6.10;;;;;;;-141.48;100.00;69781.59;5223587;28;20087;-66
2022/08/22 01:08:21;;;;;;;7.90;7.30;;;;;;;-141.48;100.00;69781.59;5223797;28;20025;-66
2022/08/22 01:11:14;;;;;;;10.98;7.50;;;;;;;-141.48;100.00;69781.59;5224014;28;20431;-66
2022/08/22 01:14:22;;;;;;;6.43;5.90;;;;;;;-141.48;100.00;69781.59;5193362;28;20366;-66
2022/08/22 01:17:01;;;;;;;9.77;7.57;;;;;;;-141.48;100.00;69781.59;5223886;28;20033;-67
2022/08/22 01:19:37;;;;;;;8.77;7.10;;;;;;;-141.48;100.00;69781.59;5223857;28;20032;-66
2022/08/22 01:22:45;;;;;;;12.23;6.50;;;;;;;-141.48;100.00;69781.59;5223717;28;20033;-66
2022/08/22 01:25:36;;;;;;;8.63;6.40;;;;;;;-141.48;100.00;69781.59;5223736;28;20087;-66
2022/08/22 01:28:10;;;;;;;10.93;6.32;;;;;;;-141.48;100.00;69781.59;5223776;28;20036;-66
2022/08/22 01:30:59;;;;;;;6.80;6.30;;;;;;;-141.48;100.00;69781.59;5223857;28;20028;-66
2022/08/22 01:33:42;;;;;;;9.20;6.28;;;;;;;-141.48;100.00;69781.59;5205249;28;20083;-66
2022/08/22 01:36:36;;;;;;;13.00;7.05;;;;;;;-141.48;100.00;69781.59;5223651;28;20096;-66
2022/08/22 01:39:27;;;;;;;6.72;6.00;;;;;;;-141.48;100.00;69781.59;5223665;28;20048;-66
2022/08/22 01:42:30;;;;;;;8.20;6.90;;;;;;;-141.48;100.00;69781.59;5205850;28;20074;-66
2022/08/22 01:45:37;;;;;;;8.68;5.60;;;;;;;-141.48;100.00;69781.59;5197119;28;20449;-67
2022/08/22 01:48:23;;;;;;;11.13;6.82;;;;;;;-141.48;100.00;69781.59;5221585;28;20508;-63
2022/08/22 01:51:10;;;;;;;7.45;6.38;;;;;;;-141.48;100.00;69781.59;5206728;28;20023;-64
2022/08/22 01:53:49;;;;;;;13.52;6.00;;;;;;;-141.48;100.00;69781.59;5222823;28;20029;-64
2022/08/22 01:56:22;;;;;;;6.30;5.80;;;;;;;-141.48;100.00;69781.59;5227131;28;20028;-65
2022/08/22 01:58:58;;;;;;;10.18;5.13;;;;;;;-141.48;100.00;69781.59;5227354;28;20036;-66
2022/08/22 02:01:51;;;;;;;11.90;6.30;;;;;;;-141.48;100.00;69781.59;5209704;28;20051;-65
2022/08/22 02:04:47;;;;;;;7.82;5.50;;;;;;;-141.48;100.00;69781.59;5216946;28;20079;-66
2022/08/22 02:07:48;;;;;;;10.70;5.95;;;;;;;-141.48;100.00;69781.59;5227387;28;20032;-65
2022/08/22 02:10:40;;;;;;;6.88;5.32;;;;;;;-141.48;100.00;69781.59;5226889;28;20078;-65
2022/08/22 02:13:11;;;;;;;7.53;4.95;;;;;;;-141.48;100.00;69781.59;5227115;28;20107;-65
2022/08/22 02:16:10;;;;;;;11.40;6.70;;;;;;;-141.48;100.00;69781.59;5226084;28;20103;-66
2022/08/22 02:18:55;;;;;;;7.32;6.25;;;;;;;-141.48;100.00;69781.59;5226995;28;20181;-65
2022/08/22 02:21:40;;;;;;;6.45;4.70;;;;;;;-141.48;100.00;69781.59;5227030;28;20031;-66
2022/08/22 02:24:36;;;;;;;7.93;7.00;;;;;;;-141.48;100.00;69781.59;5226566;28;20033;-66
2022/08/22 02:27:22;;;;;;;9.55;6.80;;;;;;;-141.48;100.00;69781.59;5208904;28;20052;-67
2022/08/22 02:30:02;;;;;;;6.53;4.82;;;;;;;-141.48;100.00;69781.59;5226886;28;20025;-66
2022/08/22 02:32:36;;;;;;;;;;;;;;;-141.48;100.00;69781.59;5226928;28;20427;-64
2022/08/22 02:35:24;;;;;;;7.53;6.80;;;;;;;-141.48;100.00;69781.59;5226054;28;19908;-64
2022/08/22 02:37:58;;;;;;;6.10;5.53;;;;;;;-141.48;100.00;69781.59;5226756;28;20025;-64
2022/08/22 02:40:44;;;;;;;9.80;7.07;;;;;;;-141.48;100.00;69781.59;5226617;28;20487;-64
2022/08/22 02:43:35;;;;;;;12.02;6.38;;;;;;;-141.48;100.00;69781.59;5226332;28;20073;-64
2022/08/22 02:46:48;;;;;;;8.30;5.57;;;;;;;-141.48;100.00;69781.59;5226672;28;20024;-64
2022/08/22 02:49:30;;;;;;;17.13;8.23;;;;;;;-141.48;100.00;69781.59;5213321;28;20386;-64
2022/08/22 02:52:16;;;;;;;7.30;6.18;;;;;;;-141.48;100.00;69781.59;5208574;28;20563;-64
2022/08/22 02:54:55;;;;;;;9.43;7.85;;;;;;;-141.48;100.00;69781.59;5263083;22;20147;-79
2022/08/22 02:57:52;;;;;;;7.13;6.47;;;;;;;-141.48;100.00;69781.59;5270141;28;20484;-79
2022/08/22 03:00:26;;;;;;;6.53;6.03;;;;;;;-141.48;100.00;69781.59;5266911;28;20062;-79
2022/08/22 03:03:25;;;;;;;6.90;6.05;;;;;;;-141.48;100.00;69781.59;5230831;28;20034;-79
2022/08/22 03:06:26;;;;;;;11.50;6.20;;;;;;;-141.48;100.00;69781.59;5248341;28;20060;-80
2022/08/22 03:09:15;;;;;;;6.80;6.20;;;;;;;-141.48;100.00;69781.59;5249650;28;20021;-79
2022/08/22 03:11:51;;;;;;;7.20;5.82;;;;;;;-141.48;100.00;69781.59;5249812;28;20029;-81
2022/08/22 03:14:43;;;;;;;11.88;5.57;;;;;;;-141.48;100.00;69781.59;5230013;28;20036;-79
2022/08/22 03:17:20;;;;;;;8.45;7.53;;;;;;;-141.48;100.00;69781.59;5249276;28;20031;-79
2022/08/22 03:20:00;;;;;;;5.75;5.32;;;;;;;-141.48;100.00;69781.59;5248445;28;20025;-79
2022/08/22 03:22:52;;;;;;;13.32;7.65;;;;;;;-141.48;100.00;69781.59;5248428;28;20032;-80
2022/08/22 03:25:44;;;;;;;6.95;6.35;;;;;;;-141.48;100.00;69781.59;5245025;22;20044;-65
2022/08/22 03:28:22;;;;;;;6.80;5.70;;;;;;;-141.48;100.00;69781.59;5266389;28;20506;-62
2022/08/22 03:30:58;;;;;;;12.70;6.93;;;;;;;-141.48;100.00;69781.59;5266659;28;20039;-63
2022/08/22 03:33:30;;;;;;;10.68;7.35;;;;;;;-141.48;100.00;69781.59;5266669;28;20036;-63
2022/08/22 03:36:24;;;;;;;8.45;7.75;;;;;;;-141.48;100.00;69781.59;5266623;28;20518;-62
2022/08/22 03:39:46;;;;;;;7.07;6.47;;;;;;;-141.48;100.00;69781.59;5266334;28;20145;-65
2022/08/22 03:42:22;;;;;;;9.68;7.68;;;;;;;-141.48;100.00;69781.59;5231924;28;20043;-62
2022/08/22 03:45:13;;;;;;;6.47;6.07;;;;;;;-141.48;100.00;69781.59;5265907;28;20529;-63
2022/08/22 03:48:04;;;;;;;7.40;6.72;;;;;;;-141.48;100.00;69781.59;5266319;28;20032;-63
2022/08/22 03:51:15;;;;;;;6.55;5.85;;;;;;;-141.48;100.00;69781.59;5348838;22;20069;-91
2022/08/22 03:54:01;;;;;;;11.80;7.13;;;;;;;-141.48;100.00;69781.59;5289527;27;20043;-91
2022/08/22 03:56:50;;;;;;;7.60;6.90;;;;;;;-141.48;100.00;69781.59;5276159;28;20024;-92
2022/08/22 03:59:54;;;;;;;4.47;4.13;;;;;;;-141.48;100.00;69781.59;5294157;28;20115;-91
2022/08/22 04:03:04;;;;;;;10.27;8.35;;;;;;;-141.48;100.00;69781.59;5275381;28;20295;-92
2022/08/22 04:06:06;;;;;;;7.30;6.80;;;;;;;-141.48;100.00;69781.59;5290949;28;20032;-91
2022/08/22 04:08:51;;;;;;;7.30;6.70;;;;;;;-141.48;100.00;69781.59;5280659;28;20031;-91
2022/08/22 04:11:47;;;;;;;7.45;5.75;;;;;;;-141.48;100.00;69781.59;5276244;28;20059;-91
2022/08/22 04:14:18;;;;;;;6.22;5.68;;;;;;;-141.48;100.00;69781.59;5280183;28;20052;-91
2022/08/22 04:17:16;;;;;;;7.30;6.55;;;;;;;-141.48;100.00;69781.59;5282688;28;20012;-91
2022/08/22 04:20:09;;;;;;;6.95;6.50;;;;;;;-141.48;100.00;69781.59;5296380;28;20026;-92
2022/08/22 04:22:48;;;;;;;6.80;6.35;;;;;;;-141.48;100.00;69781.59;5296148;28;20020;-92
2022/08/22 04:25:24;;;;;;;9.60;5.22;;;;;;;-141.48;100.00;69781.59;5313789;28;20030;-93
2022/08/22 04:28:23;;;;;;;6.10;5.35;;;;;;;-141.48;100.00;69781.59;5291655;28;20031;-90
2022/08/22 04:31:07;;;;;;;12.47;7.10;;;;;;;-141.48;100.00;69781.59;5271235;28;20035;-92
2022/08/22 04:33:51;;;;;;;7.32;5.20;;;;;;;-141.48;100.00;69781.59;5294904;28;20503;-91
2022/08/22 04:36:25;;;;;;;6.30;5.88;;;;;;;-141.48;100.00;69781.59;5284532;28;20031;-91
2022/08/22 04:39:07;;;;;;;11.27;7.55;;;;;;;-141.48;100.00;69781.59;5284799;28;20080;-90
2022/08/22 04:42:13;;;;;;;7.60;5.95;;;;;;;-141.48;100.00;69781.59;5299886;28;20043;-91
2022/08/22 04:44:53;;;;;;;6.28;5.75;;;;;;;-141.48;100.00;69781.59;5278466;28;20110;-92
2022/08/22 04:47:28;;;;;;;7.20;6.40;;;;;;;-141.48;100.00;69781.59;5279332;28;20065;-91
2022/08/22 04:50:22;;;;;;;7.88;7.18;;;;;;;-141.48;100.00;69781.59;5275108;28;20091;-91
2022/08/22 04:53:01;;;;;;;7.70;6.95;;;;;;;-141.48;100.00;69781.59;5275155;28;20059;-91
2022/08/22 04:55:53;;;;;;;8.03;5.87;;;;;;;-141.48;100.00;69781.59;5293709;28;20042;-91
2022/08/22 04:58:54;;;;;;;7.05;6.35;;;;;;;-141.48;100.00;69781.59;5293320;28;20035;-91
2022/08/22 05:01:52;;;;;;;6.47;5.97;;;;;;;-141.48;100.00;69781.59;5274653;28;20015;-91
2022/08/22 05:04:30;;;;;;;18.33;8.48;;;;;;;-141.48;100.00;69781.59;5274092;28;20081;-92
2022/08/22 05:07:20;;;;;;;8.60;7.00;;;;;;;-141.48;100.00;69781.59;5292714;28;20024;-92
2022/08/22 05:10:07;;;;;;;10.23;7.70;;;;;;;-141.48;100.00;69781.59;5274904;28;20047;-89
2022/08/22 05:12:54;;;;;;;6.70;5.30;;;;;;;-141.48;100.00;69781.59;5292550;28;20027;-90
2022/08/22 05:15:40;;;;;;;7.18;6.65;;;;;;;-141.48;100.00;69781.59;5274734;28;20058;-91
2022/08/22 05:18:26;;;;;;;9.40;6.13;;;;;;;-141.48;100.00;69781.59;5294239;28;20038;-92
2022/08/22 05:21:02;;;;;;;10.73;6.07;;;;;;;-141.48;100.00;69781.59;5276266;28;20023;-91
2022/08/22 05:23:42;;;;;;;7.55;6.88;;;;;;;-141.48;100.00;69781.59;5284613;28;20024;-91
2022/08/22 05:26:15;;;;;;;8.25;7.35;;;;;;;-141.48;100.00;69781.59;5273254;28;20089;-92
2022/08/22 05:28:50;;;;;;;8.75;6.97;;;;;;;-141.48;100.00;69781.59;5274879;28;20030;-92
2022/08/22 05:31:28;;;;;;;6.60;6.10;;;;;;;-141.48;100.00;69781.59;5298207;28;20043;-91
2022/08/22 05:34:12;;;;;;;8.90;8.20;;;;;;;-141.48;100.00;69781.59;5279863;28;20038;-91
2022/08/22 05:37:07;;;;;;;6.57;5.97;;;;;;;-141.48;100.00;69781.59;5280435;28;20084;-91
2022/08/22 05:39:45;;;;;;;8.35;7.57;;;;;;;-141.48;100.00;69781.59;5295154;28;20051;-90
2022/08/22 05:42:32;;;;;;;9.38;8.63;;;;;;;-141.48;100.00;69781.59;5261706;22;20477;-63
2022/08/22 05:45:06;;;;;;;8.85;8.15;;;;;;;-141.48;100.00;69781.59;5245256;28;20048;-62
2022/08/22 05:47:36;;;;;;;8.02;7.28;;;;;;;-141.48;100.00;69781.59;5242999;28;20025;-62
2022/08/22 05:50:14;;;;;;;11.43;7.93;;;;;;;-141.48;100.00;69781.59;5245388;28;20127;-63
2022/08/22 05:53:06;;;;;;;10.10;8.80;;;;;;;-141.48;100.00;69781.59;5242550;28;20103;-62
2022/08/22 05:55:47;;;;;;;7.38;6.75;;;;;;;-141.48;100.00;69781.59;5245675;28;20040;-63
2022/08/22 05:58:45;;;;;;;9.77;8.98;;;;;;;-141.48;100.00;69781.59;5246233;28;20103;-63
2022/08/22 06:01:40;;;;;;;11.10;8.60;;;;;;;-141.48;100.00;69781.59;5443803;22;20060;-90
2022/08/22 06:04:30;;;;;;;8.63;7.78;;;;;;;-141.48;100.00;69781.59;5265371;28;20032;-90
2022/08/22 06:07:06;;;;;;;7.78;6.72;;;;;;;-141.48;100.00;69781.59;5265755;28;20017;-89
2022/08/22 06:09:46;;;;;;;8.82;7.85;;;;;;;-141.48;100.00;69781.59;5237667;28;20096;-90
2022/08/22 06:12:21;;;;;;;6.68;6.18;;;;;;;-141.48;100.00;69781.59;5234908;28;20035;-91
2022/08/22 06:15:16;;;;;;;8.18;7.45;;;;;;;-141.48;100.00;69781.59;5234996;28;20116;-91
2022/08/22 06:17:52;;;;;;;10.25;9.25;;;;;;;-141.48;100.00;69781.59;5236576;28;20024;-91
2022/08/22 06:20:33;;;;;;;8.48;7.85;;;;;;;-141.48;100.00;69781.59;5235293;28;20032;-91
2022/08/22 06:23:06;;;;;;;10.75;8.35;;;;;;;-141.48;100.00;69781.59;5236692;28;20032;-90
2022/08/22 06:25:39;;;;;;;9.70;8.63;;;;;;;-141.48;100.00;69781.59;5236328;28;20013;-91
2022/08/22 06:28:21;;;;;;;8.27;7.63;;;;;;;-141.48;100.00;69781.59;5254433;28;20028;-90
2022/08/22 06:30:54;;;;;;;10.60;9.57;;;;;;;-141.48;100.00;69781.59;5235304;28;20563;-91
2022/08/22 06:33:31;;;;;;;9.55;8.90;;;;;;;-141.48;100.00;69781.59;5250805;28;20023;-91
2022/08/22 06:36:30;;;;;;;8.90;8.30;;;;;;;-141.48;100.00;69781.59;5256476;28;20024;-91
2022/08/22 06:39:29;;;;;;;9.80;8.90;;;;;;;-141.48;100.00;69781.59;5256191;28;20400;-91
2022/08/22 06:42:03;;;;;;;;;;;;;;;-141.48;100.00;69781.59;5256539;28;20109;-90
2022/08/22 06:44:38;;;;;;;10.07;9.05;;;;;;;-141.48;100.00;69781.59;5256630;28;20015;-90
2022/08/22 06:47:18;;;;;;;9.48;8.68;;;;;;;-141.48;100.00;69781.59;5255976;28;20038;-90
2022/08/22 06:49:54;;;;;;;8.38;7.55;;;;;;;-141.48;100.00;69781.59;5255868;28;20028;-90
2022/08/22 06:52:28;;;;;;;10.05;9.25;;;;;;;-141.48;100.00;69781.59;5255401;28;20028;-88
2022/08/22 06:55:04;;;;;;;8.93;7.80;;;;;;;-141.48;100.00;69781.59;5272945;28;20028;-91
2022/08/22 06:57:42;;;;;;;8.77;8.00;;;;;;;-141.48;100.00;69781.59;5255329;28;20031;-91
2022/08/22 07:00:15;;;;;;;8.35;7.85;;;;;;;-141.48;100.00;69781.59;5255277;28;20036;-90
2022/08/22 07:02:55;;;;;;;9.43;8.77;;;;;;;-141.48;100.00;69781.59;5256989;28;20059;-89
2022/08/22 07:05:32;;;;;;;10.02;9.40;;;;;;;-141.48;100.00;69781.59;5265964;28;20016;-89
2022/08/22 07:08:07;;;;;;;9.90;9.05;;;;;;;-141.48;100.00;69781.59;5280426;28;20023;-91
2022/08/22 07:10:44;;;;;;;11.05;8.07;;;;;;;-141.48;100.00;69781.59;5277792;28;20040;-90
2022/08/22 07:13:15;;;;;;;9.23;8.27;;;;;;;-141.48;100.00;69781.59;5259073;28;20028;-90
2022/08/22 07:15:56;;;;;;;9.32;8.48;;;;;;;-141.48;100.00;69781.59;5257124;28;20031;-90
2022/08/22 07:18:28;;;;;;;9.85;9.05;;;;;;;-141.48;100.00;69781.59;5261853;28;20088;-91
2022/08/22 07:21:06;;;;;;;11.00;9.00;;;;;;;-141.48;100.00;69781.59;5278914;28;20379;-90
2022/08/22 07:23:43;;;;;;;11.48;7.88;;;;;;;-141.48;100.00;69781.59;5291833;28;20024;-90
2022/08/22 07:26:42;;;;;;;8.90;8.07;;;;;;;-141.48;100.00;69781.59;5289530;28;20032;-91
2022/08/22 07:29:26;;;;;;;9.18;8.38;;;;;;;-141.48;100.00;69781.59;5267097;28;20552;-92
2022/08/22 07:32:08;;;;;;;11.40;10.23;;;;;;;-141.48;100.00;69781.59;5287457;28;20008;-93
2022/08/22 07:34:52;;;;;;;10.75;9.73;;;;;;;-141.48;100.00;69781.59;5268035;28;20030;-92
2022/08/22 07:37:49;;;;;;;11.20;10.20;;;;;;;-141.48;100.00;69781.59;5268265;28;20024;-90
2022/08/22 07:40:38;;;;;;;9.90;8.98;;;;;;;-141.48;100.00;69781.59;5278993;28;20021;-89
2022/08/22 07:43:30;;;;;;;;;;;;;;;-141.48;100.00;69781.59;5284189;28;20033;-90
2022/08/22 07:46:10;;;;;;;9.60;8.82;;;;;;;-141.48;100.00;69781.59;5260616;28;19912;-89
2022/08/22 07:48:48;;;;;;;10.07;9.38;;;;;;;-141.48;100.00;69781.59;5256410;28;20031;-88
2022/08/22 07:51:28;;;;;;;8.95;8.20;;;;;;;-141.48;100.00;69781.59;5273100;28;20034;-88
2022/08/22 07:54:07;;;;;;;16.65;9.60;;;;;;;-141.48;100.00;69781.59;5257044;28;20104;-88
2022/08/22 07:56:45;;;;;;;10.90;9.02;;;;;;;-141.48;100.00;69781.59;5273632;28;20478;-89
2022/08/22 07:59:18;;;;;;;12.32;9.13;;;;;;;-141.48;100.00;69781.59;5256917;28;20032;-90
2022/08/22 08:01:55;;;;;;;8.55;7.75;;;;;;;-141.48;100.00;69781.59;5259239;28;20028;-89
2022/08/22 08:04:32;;;;;;;9.60;8.52;;;;;;;-141.48;100.00;69781.59;5233279;28;20028;-90
2022/08/22 08:07:07;;;;;;;8.70;7.88;;;;;;;-141.48;100.00;69781.59;5232808;28;20056;-90
2022/08/22 08:09:41;;;;;;;13.48;9.50;;;;;;;-141.48;100.00;69781.59;5251555;28;20501;-90
2022/08/22 08:12:14;;;;;;;10.52;9.20;;;;;;;-141.48;100.00;69781.59;5251435;28;20130;-90
2022/08/22 08:14:48;;;;;;;9.88;8.98;;;;;;;-141.48;100.00;69781.59;5247225;28;20032;-89
2022/08/22 08:17:25;;;;;;;13.57;10.85;;;;;;;-141.48;100.00;69781.59;5250510;28;20470;-90
2022/08/22 08:19:59;;;;;;;11.07;9.18;;;;;;;-141.48;100.00;69781.59;5231941;28;20131;-91
2022/08/22 08:22:30;;;;;;;11.63;10.27;;;;;;;-141.48;100.00;69781.59;5233840;28;20040;-93
2022/08/22 08:25:02;;;;;;;10.80;9.82;;;;;;;-141.48;100.00;69781.59;5234823;28;20024;-92
2022/08/22 08:30:41;;;;;;;13.45;10.38;;;;;;;-141.48;100.00;69781.59;5253548;28;20047;-92
2022/08/22 08:33:18;;;;;;;14.43;10.60;;;;;;;-141.48;100.00;69781.59;5256095;28;20097;-92
2022/08/22 08:36:02;;;;;;;11.07;9.98;;;;;;;-141.48;100.00;69781.59;5237993;28;20048;-92
2022/08/22 08:38:56;;;;;;;11.68;9.43;;;;;;;-141.48;100.00;69781.59;5235948;28;20533;-92
2022/08/22 08:41:33;;;;;;;14.02;10.30;;;;;;;-141.48;100.00;69781.59;5237931;28;20118;-92
2022/08/22 08:44:39;;;;;;;10.65;9.77;;;;;;;-141.48;100.00;69781.59;5257688;28;20020;-93
2022/08/22 08:47:15;;;;;;;10.48;9.73;;;;;;;-141.48;100.00;69781.59;5241803;28;20047;-91
2022/08/22 08:50:05;;;;;;;10.63;9.27;;;;;;;-141.48;100.00;69781.59;5254558;28;20024;-91
2022/08/22 08:53:10;;;;;;;12.25;8.68;;;;;;;-141.48;100.00;69781.59;5273945;28;20090;-94
2022/08/22 08:56:13;;;;;;;9.20;8.50;;;;;;;-141.48;100.00;69781.59;5274218;22;20041;-65
2022/08/22 08:59:10;;;;;;;9.77;8.55;;;;;;;-141.48;100.00;69781.59;5195731;28;20429;-65
2022/08/22 09:02:08;;;;;;;10.00;8.30;;;;;;;-141.48;100.00;69781.59;5223794;28;20032;-68
2022/08/22 09:05:14;;;;;;;9.47;8.03;;;;;;;-141.48;100.00;69781.59;5226030;28;20063;-64
2022/08/22 09:07:59;;;;;;;9.20;8.35;;;;;;;-141.48;100.00;69781.59;5230576;28;20255;-67
2022/08/22 09:11:03;;;;;;;12.07;8.38;;;;;;;-141.48;100.00;69781.59;5230288;28;20043;-64
2022/08/22 09:13:55;;;;;;;10.75;7.40;;;;;;;-141.48;100.00;69781.59;5212664;28;20380;-65
2022/08/22 09:16:54;;;;;;;9.52;8.77;;;;;;;-141.48;100.00;69781.59;5231200;28;20033;-65
2022/08/22 09:20:02;;;;;;;11.15;9.30;;;;;;;-141.48;100.00;69781.59;5230560;28;20036;-64
2022/08/22 09:22:57;;;;;;;8.85;8.05;;;;;;;-141.48;100.00;69781.59;5230814;28;20465;-64
2022/08/22 09:25:52;;;;;;;10.57;8.10;;;;;;;-141.48;100.00;69781.59;5230406;28;20025;-68
2022/08/22 09:28:39;;;;;;;8.57;7.82;;;;;;;-141.48;100.00;69781.59;5230870;28;20090;-67
2022/08/22 09:31:27;;;;;;;7.72;6.93;;;;;;;-141.48;100.00;69781.59;5230146;28;20029;-65
2022/08/22 09:34:15;;;;;;;8.90;7.88;;;;;;;-141.48;100.00;69781.59;5228952;28;20067;-66
2022/08/22 09:37:06;;;;;;;8.75;6.45;;;;;;;-141.48;100.00;69781.59;5230672;28;20485;-65
2022/08/22 09:39:48;;;;;;;8.75;7.70;;;;;;;-141.48;100.00;69781.59;5237322;28;20534;-65
2022/08/22 09:42:40;;;;;;;7.00;6.35;;;;;;;-141.48;100.00;69781.59;5250584;28;20506;-65
2022/08/22 09:45:35;;;;;;;12.00;8.18;;;;;;;-141.48;100.00;69781.59;5232668;28;20039;-65
2022/08/22 09:48:20;;;;;;;9.40;5.15;;;;;;;-141.48;100.00;69781.59;5249998;28;20021;-64
2022/08/22 09:50:59;;;;;;;6.20;5.70;;;;;;;-141.48;100.00;69781.59;5250676;28;20024;-64
2022/08/22 09:53:51;;;;;;;7.50;5.65;;;;;;;-141.48;100.00;69781.59;5250321;28;20028;-64
2022/08/22 09:56:41;;;;;;;7.70;6.45;;;;;;;-141.48;100.00;69781.59;5251072;28;20036;-63
2022/08/22 09:59:50;;;;;;;7.88;4.90;;;;;;;-141.48;100.00;69781.59;5251093;28;20025;-64
2022/08/22 10:02:28;;;;;;;5.35;5.03;;;;;;;-141.48;100.00;69781.59;5218553;28;20480;-65
2022/08/22 10:05:08;;;;;;;5.65;5.20;;;;;;;-141.48;100.00;69781.59;5232017;28;20117;-65
2022/08/22 10:08:07;;;;;;;7.78;6.68;;;;;;;-141.48;100.00;69781.59;5232560;28;20093;-63
2022/08/22 10:10:55;;;;;;;5.53;3.53;;;;;;;-141.48;100.00;69781.59;5232898;28;20059;-64
2022/08/22 10:13:49;;;;;;;4.95;4.65;;;;;;;-141.48;100.00;69781.59;5249921;28;20095;-66
2022/08/22 10:16:20;;;;;;;4.35;4.05;;;;;;;-141.48;100.00;69781.59;5248632;28;20107;-66
2022/08/22 10:19:06;;;;;;;4.63;4.22;;;;;;;-141.48;100.00;69781.59;5247333;28;20104;-64
2022/08/22 10:22:17;;;;;;;3.97;3.67;;;;;;;-141.48;100.00;69781.59;5247471;28;20106;-64
2022/08/22 10:24:57;;;;;;;7.20;5.18;;;;;;;-141.48;100.00;69781.59;5228850;28;20032;-65
2022/08/22 10:28:08;;;;;;;6.50;5.15;;;;;;;-141.48;100.00;69781.59;5229297;28;20034;-63
2022/08/22 10:31:11;;;;;;;8.68;3.65;;;;;;;-141.48;100.00;69781.59;5229429;28;20028;-64
2022/08/22 10:33:55;;;;;;;3.50;3.30;;;;;;;-141.48;100.00;69781.59;5211830;28;20044;-64
2022/08/22 10:36:48;;;;;;;5.32;4.28;;;;;;;-141.48;100.00;69781.59;5230490;28;20540;-64
2022/08/22 10:39:25;;;;;;;3.40;3.05;;;;;;;-141.48;100.00;69781.59;5247259;28;20492;-65
2022/08/22 10:42:08;;;;;;;7.15;3.97;;;;;;;-141.48;100.00;69781.59;5238897;28;20380;-65
2022/08/22 10:44:52;;;;;;;4.32;4.03;;;;;;;-141.48;100.00;69781.59;5245997;28;20059;-65
2022/08/22 10:47:46;;;;;;;5.13;4.65;;;;;;;-141.48;100.00;69781.59;5212268;28;20057;-65
2022/08/22 10:50:20;;;;;;;7.95;3.33;;;;;;;-141.48;100.00;69781.59;5231575;28;20055;-65
2022/08/22 10:53:28;;;;;;;6.82;5.18;;;;;;;-141.48;100.00;69781.59;5246976;28;20043;-65
2022/08/22 10:55:50;;;;;;;5.50;4.57;;;;;;;-141.48;100.00;69781.59;5246013;28;20090;-65
2022/08/22 10:58:28;;;;;;;3.92;3.65;;;;;;;-141.48;100.00;69781.59;5246672;28;20078;-65
2022/08/22 11:01:01;;;;;;;5.28;4.80;;;;;;;-141.48;100.00;69781.59;5228365;28;20070;-67
2022/08/22 11:03:44;;;;;;;4.05;3.80;;;;;;;-141.48;100.00;69781.59;5245934;28;20028;-65
2022/08/22 11:06:37;;;;;;;13.55;5.00;;;;;;;-141.48;100.00;69781.59;5246603;28;20021;-65
2022/08/22 11:09:13;;;;;;;5.38;4.97;;;;;;;-141.48;100.00;69781.59;5246150;28;20027;-65
2022/08/22 11:12:20;;;;;;;3.38;3.03;;;;;;;-141.48;100.00;69781.59;5245489;28;20520;-66
2022/08/22 11:15:08;;;;;;;4.25;3.95;;;;;;;-141.48;100.00;69781.59;5245536;28;20399;-63
2022/08/22 11:18:16;;;;;;;7.90;3.67;;;;;;;-141.48;100.00;69781.59;5246312;28;20024;-65
2022/08/22 11:21:16;;;;;;;8.60;4.15;;;;;;;-141.48;100.00;69781.59;5227923;28;20025;-65
2022/08/22 11:24:10;;;;;;;5.75;4.60;;;;;;;-141.48;100.00;69781.59;5227865;28;20055;-64
2022/08/22 11:26:53;;;;;;;5.93;4.25;;;;;;;-141.48;100.00;69781.59;5244622;28;20031;-64
2022/08/22 11:29:46;;;;;;;4.30;3.90;;;;;;;-141.48;100.00;69781.59;5245877;28;20036;-64
2022/08/22 11:32:33;;;;;;;4.95;3.53;;;;;;;-141.48;100.00;69781.59;5245790;28;20028;-65
2022/08/22 11:35:15;;;;;;;5.55;4.47;;;;;;;-141.48;100.00;69781.59;5244795;28;20032;-67
2022/08/22 11:38:04;;;;;;;5.35;2.83;;;;;;;-141.48;100.00;69781.59;5245897;28;20510;-66
2022/08/22 11:40:36;;;;;;;5.93;4.20;;;;;;;-141.48;100.00;69781.59;5245342;28;20085;-65
2022/08/22 11:43:42;;;;;;;5.45;4.45;;;;;;;-141.48;100.00;69781.59;5244786;28;20028;-66
2022/08/22 11:46:22;;;;;;;3.58;3.20;;;;;;;-141.48;100.00;69781.59;5227142;28;20119;-65
2022/08/22 11:49:16;;;;;;;4.00;3.50;;;;;;;-141.48;100.00;69781.59;5245748;28;20039;-65
2022/08/22 11:51:58;;;;;;;4.70;3.92;;;;;;;-141.48;100.00;69781.59;5245517;28;20590;-63
2022/08/22 11:54:38;;;;;;;4.07;3.78;;;;;;;-141.48;100.00;69781.59;5226615;28;20063;-66
2022/08/22 11:57:16;;;;;;;6.25;4.03;;;;;;;-141.48;100.00;69781.59;5244968;28;20017;-63
2022/08/22 11:59:52;;;;;;;3.97;2.83;;;;;;;-141.48;100.00;69781.59;5226459;28;20043;-64
2022/08/22 12:03:04;;;;;;;7.07;4.35;;;;;;;-141.48;100.00;69781.59;5227309;28;20128;-63
2022/08/22 12:05:48;;;;;;;18.17;6.07;;;;;;;-141.48;100.00;69781.59;5229719;28;20041;-63
2022/08/22 12:08:34;;;;;;;12.10;5.00;;;;;;;-141.48;100.00;69781.59;5244528;28;20357;-64
2022/08/22 12:11:13;;;;;;;4.20;3.63;;;;;;;-141.48;100.00;69781.59;5244434;28;20044;-64
2022/08/22 12:14:01;;;;;;;3.38;3.17;;;;;;;-141.48;100.00;69781.59;5244206;28;20054;-64
2022/08/22 12:17:00;;;;;;;5.18;3.67;;;;;;;-141.48;100.00;69781.59;5244298;28;20032;-64
2022/08/22 12:19:47;;;;;;;5.93;4.30;;;;;;;-141.48;100.00;69781.59;5226778;28;20036;-65
2022/08/22 12:22:36;;;;;;;3.35;2.25;;;;;;;-141.48;100.00;69781.59;5210644;28;20047;-64
2022/08/22 12:25:16;;;;;;;3.97;3.45;;;;;;;-141.48;100.00;69781.59;5226106;28;20119;-66
2022/08/22 12:27:50;;;;;;;3.20;2.90;;;;;;;-141.48;100.00;69781.59;5223511;28;20253;-66
2022/08/22 12:30:33;;;;;;;4.65;4.18;;;;;;;-141.48;100.00;69781.59;5243849;28;20086;-65
2022/08/22 12:33:13;;;;;;;6.53;3.15;;;;;;;-141.48;100.00;69781.59;5226350;28;20035;-66
2022/08/22 12:36:10;;;;;;;5.20;4.82;;;;;;;-141.48;100.00;69781.59;5244280;28;20408;-66
2022/08/22 12:38:47;;;;;;;6.65;4.43;;;;;;;-141.48;100.00;69781.59;5225951;28;20029;-65